createdAt,value
2023-04-24T00:01:44.313Z,979.2
2023-04-24T00:04:11.001Z,979.2
2023-04-24T00:06:37.674Z,979.3
2023-04-24T00:09:04.370Z,979.2
2023-04-24T00:11:31.051Z,979.2
2023-04-24T00:13:57.732Z,979.2
2023-04-24T00:16:24.426Z,979.3
2023-04-24T00:18:51.108Z,979.3
2023-04-24T00:21:17.785Z,979.3
2023-04-24T00:23:44.475Z,979.3
2023-04-24T00:26:11.162Z,979.3
2023-04-24T00:28:36.380Z,979.3
2023-04-24T00:33:29.737Z,979.4
2023-04-24T00:35:56.427Z,979.3
2023-04-24T00:38:23.122Z,979.4
2023-04-24T00:40:49.794Z,979.3
2023-04-24T00:43:16.487Z,979.4
2023-04-24T00:45:43.225Z,979.3
2023-04-24T00:48:09.863Z,979.3
2023-04-24T00:50:36.547Z,979.2
2023-04-24T00:53:03.236Z,979.3
2023-04-24T00:55:29.910Z,979.2
2023-04-24T00:57:56.629Z,979.2
2023-04-24T01:00:21.834Z,979.1
2023-04-24T01:02:48.497Z,979.1
2023-04-24T01:05:15.191Z,979.1
2023-04-24T01:07:41.884Z,979.1
2023-04-24T01:10:08.557Z,979.1
2023-04-24T01:12:35.232Z,979.1
2023-04-24T01:15:01.930Z,979.1
2023-04-24T01:17:28.619Z,979
2023-04-24T01:19:55.300Z,979.1
2023-04-24T01:22:21.983Z,979
2023-04-24T01:24:48.675Z,979.1
2023-04-24T01:27:15.360Z,979
2023-04-24T01:29:42.030Z,978.9
2023-04-24T01:32:08.719Z,978.9
2023-04-24T01:34:33.951Z,978.9
2023-04-24T01:37:00.624Z,978.9
2023-04-24T01:39:27.312Z,978.9
2023-04-24T01:41:53.994Z,978.9
2023-04-24T01:44:20.667Z,978.8
2023-04-24T01:46:47.368Z,978.8
2023-04-24T01:49:14.047Z,978.7
2023-04-24T01:51:40.733Z,978.8
2023-04-24T01:54:07.423Z,978.8
2023-04-24T01:56:34.096Z,978.7
2023-04-24T01:59:00.796Z,978.8
2023-04-24T02:01:27.466Z,978.7
2023-04-24T02:03:54.162Z,978.8
2023-04-24T02:06:19.378Z,978.7
2023-04-24T02:08:46.066Z,978.8
2023-04-24T02:11:12.740Z,978.8
2023-04-24T02:13:39.439Z,978.8
2023-04-24T02:16:06.119Z,978.7
2023-04-24T02:18:32.804Z,978.7
2023-04-24T02:20:59.494Z,978.7
2023-04-24T02:23:26.177Z,978.7
2023-04-24T02:25:52.849Z,978.7
2023-04-24T02:28:19.529Z,978.7
2023-04-24T02:30:46.224Z,978.7
2023-04-24T02:33:12.913Z,978.7
2023-04-24T02:35:39.584Z,978.8
2023-04-24T02:38:04.807Z,978.8
2023-04-24T02:40:31.499Z,978.8
2023-04-24T02:42:58.168Z,978.8
2023-04-24T02:45:24.933Z,978.8
2023-04-24T02:47:51.569Z,978.7
2023-04-24T02:50:18.238Z,978.6
2023-04-24T02:52:44.922Z,978.7
2023-04-24T02:55:11.616Z,978.8
2023-04-24T02:57:38.276Z,978.7
2023-04-24T03:00:04.974Z,978.8
2023-04-24T03:02:31.664Z,978.8
2023-04-24T03:04:58.338Z,978.8
2023-04-24T03:07:25.039Z,978.8
2023-04-24T03:09:50.264Z,978.9
2023-04-24T03:12:16.936Z,978.8
2023-04-24T03:14:43.614Z,978.9
2023-04-24T03:17:10.296Z,978.9
2023-04-24T03:19:36.979Z,978.9
2023-04-24T03:22:03.671Z,978.7
2023-04-24T03:24:30.389Z,978.8
2023-04-24T03:26:57.075Z,978.7
2023-04-24T03:29:23.728Z,978.8
2023-04-24T03:31:50.190Z,978.7
2023-04-24T03:34:16.861Z,978.6
2023-04-24T03:36:43.543Z,978.7
2023-04-24T03:39:10.240Z,978.8
2023-04-24T03:44:03.617Z,978.8
2023-04-24T03:46:28.824Z,978.8
2023-04-24T03:48:55.558Z,978.8
2023-04-24T03:51:22.195Z,978.9
2023-04-24T03:53:48.867Z,978.8
2023-04-24T03:56:15.566Z,978.8
2023-04-24T03:58:42.244Z,978.9
2023-04-24T04:01:08.938Z,978.9
2023-04-24T04:03:35.612Z,978.9
2023-04-24T04:06:02.352Z,978.8
2023-04-24T04:08:28.983Z,979
2023-04-24T04:10:55.670Z,978.9
2023-04-24T04:13:22.352Z,978.8
2023-04-24T04:15:49.127Z,978.8
2023-04-24T04:18:14.258Z,978.9
2023-04-24T04:20:40.932Z,978.9
2023-04-24T04:23:07.623Z,979
2023-04-24T04:25:34.317Z,979
2023-04-24T04:28:00.999Z,979
2023-04-24T04:30:27.695Z,979
2023-04-24T04:32:54.355Z,979
2023-04-24T04:35:21.063Z,979
2023-04-24T04:37:47.726Z,979.1
2023-04-24T04:40:14.421Z,979.1
2023-04-24T04:42:41.103Z,979.2
2023-04-24T04:45:07.796Z,979.3
2023-04-24T04:47:34.463Z,979.4
2023-04-24T04:50:01.150Z,979.5
2023-04-24T04:52:26.376Z,979.7
2023-04-24T04:54:53.057Z,979.6
2023-04-24T04:59:46.436Z,979.6
2023-04-24T05:02:13.105Z,979.6
2023-04-24T05:04:39.792Z,979.7
2023-04-24T05:07:06.483Z,979.8
2023-04-24T05:09:33.165Z,979.9
2023-04-24T05:11:59.850Z,980
2023-04-24T05:14:26.536Z,980
2023-04-24T05:16:53.222Z,979.9
2023-04-24T05:19:19.900Z,980.1
2023-04-24T05:21:46.590Z,980.1
2023-04-24T05:24:13.259Z,980.1
2023-04-24T05:26:39.946Z,980.1
2023-04-24T05:29:05.204Z,980.1
2023-04-24T05:31:31.862Z,980.1
2023-04-24T05:33:58.549Z,980.1
2023-04-24T05:36:25.244Z,980.2
2023-04-24T05:38:51.913Z,980.3
2023-04-24T05:41:18.605Z,980.3
2023-04-24T05:43:45.282Z,980.4
2023-04-24T05:46:11.964Z,980.5
2023-04-24T05:48:38.681Z,980.5
2023-04-24T05:51:05.329Z,980.5
2023-04-24T05:53:32.026Z,980.6
2023-04-24T05:55:58.700Z,980.7
2023-04-24T05:58:25.394Z,980.7
2023-04-24T06:00:50.627Z,980.7
2023-04-24T06:03:17.301Z,980.8
2023-04-24T06:08:10.668Z,980.9
2023-04-24T06:13:04.039Z,980.9
2023-04-24T06:15:30.713Z,980.9
2023-04-24T06:17:57.410Z,981
2023-04-24T06:20:24.092Z,981
2023-04-24T06:25:17.462Z,980.9
2023-04-24T06:27:42.716Z,980.9
2023-04-24T06:30:07.933Z,980.8
2023-04-24T06:32:34.669Z,980.9
2023-04-24T06:34:59.865Z,980.9
2023-04-24T06:37:26.546Z,980.8
2023-04-24T06:39:53.261Z,980.9
2023-04-24T06:42:19.900Z,980.8
2023-04-24T06:44:46.594Z,980.8
2023-04-24T06:47:13.279Z,980.8
2023-04-24T06:49:40.029Z,980.8
2023-04-24T06:52:06.663Z,980.7
2023-04-24T06:54:31.885Z,980.7
2023-04-24T06:56:57.117Z,980.8
2023-04-24T06:59:23.796Z,980.7
2023-04-24T07:01:50.487Z,980.8
2023-04-24T07:04:17.170Z,980.8
2023-04-24T07:06:43.858Z,980.8
2023-04-24T07:09:10.565Z,980.8
2023-04-24T07:11:37.234Z,980.8
2023-04-24T07:14:03.935Z,980.8
2023-04-24T07:16:30.607Z,980.8
2023-04-24T07:18:57.270Z,980.8
2023-04-24T07:21:23.964Z,980.8
2023-04-24T07:23:50.664Z,980.8
2023-04-24T07:26:17.337Z,980.8
2023-04-24T07:28:42.550Z,980.9
2023-04-24T07:31:09.261Z,980.7
2023-04-24T07:33:35.943Z,980.8
2023-04-24T07:36:02.682Z,980.8
2023-04-24T07:38:29.311Z,980.8
2023-04-24T07:40:55.964Z,980.8
2023-04-24T07:43:22.663Z,980.8
2023-04-24T07:45:49.352Z,980.8
2023-04-24T07:48:16.031Z,980.9
2023-04-24T07:50:42.708Z,981
2023-04-24T07:53:09.381Z,981
2023-04-24T07:55:36.121Z,981.1
2023-04-24T07:58:02.761Z,981.1
2023-04-24T08:00:27.977Z,981.2
2023-04-24T08:02:54.677Z,981.2
2023-04-24T08:05:21.343Z,981.2
2023-04-24T08:07:48.178Z,981.2
2023-04-24T08:10:14.722Z,981.2
2023-04-24T08:12:41.403Z,981.2
2023-04-24T08:15:08.090Z,981.2
2023-04-24T08:17:34.772Z,981.3
2023-04-24T08:20:01.457Z,981.4
2023-04-24T08:22:28.150Z,981.4
2023-04-24T08:24:54.825Z,981.5
2023-04-24T08:27:21.508Z,981.4
2023-04-24T08:29:48.193Z,981.5
2023-04-24T08:32:13.411Z,981.5
2023-04-24T08:34:40.102Z,981.6
2023-04-24T08:37:06.763Z,981.6
2023-04-24T08:39:33.456Z,981.6
2023-04-24T08:42:00.146Z,981.6
2023-04-24T08:44:26.849Z,981.6
2023-04-24T08:46:53.568Z,981.7
2023-04-24T08:49:20.205Z,981.8
2023-04-24T08:51:46.871Z,981.8
2023-04-24T08:54:13.569Z,981.8
2023-04-24T08:56:40.259Z,981.8
2023-04-24T08:59:06.938Z,981.8
2023-04-24T09:01:33.609Z,981.7
2023-04-24T09:03:58.843Z,981.7
2023-04-24T09:06:25.583Z,981.7
2023-04-24T09:08:52.221Z,981.8
2023-04-24T09:11:18.890Z,981.7
2023-04-24T09:13:45.572Z,981.8
2023-04-24T09:16:12.261Z,981.8
2023-04-24T09:23:32.306Z,981.9
2023-04-24T09:25:58.985Z,981.9
2023-04-24T09:28:25.680Z,981.8
2023-04-24T09:30:52.356Z,981.9
2023-04-24T09:33:19.050Z,981.9
2023-04-24T09:35:44.267Z,982
2023-04-24T09:38:10.946Z,982
2023-04-24T09:40:37.641Z,982.1
2023-04-24T09:43:04.323Z,982.1
2023-04-24T09:45:31.014Z,982.2
2023-04-24T09:47:57.705Z,982.2
2023-04-24T09:50:24.375Z,982.3
2023-04-24T09:52:51.065Z,982.4
2023-04-24T09:55:17.746Z,982.4
2023-04-24T10:00:11.110Z,982.4
2023-04-24T10:02:36.355Z,982.5
2023-04-24T10:05:03.053Z,982.4
2023-04-24T10:07:29.729Z,982.4
2023-04-24T10:09:55.031Z,982.5
2023-04-24T10:12:21.617Z,982.4
2023-04-24T10:14:48.311Z,982.5
2023-04-24T10:17:14.990Z,982.5
2023-04-24T10:19:41.674Z,982.4
2023-04-24T10:22:08.383Z,982.5
2023-04-24T10:24:35.053Z,982.4
2023-04-24T10:27:01.731Z,982.5
2023-04-24T10:29:28.426Z,982.6
2023-04-24T10:31:55.112Z,982.6
2023-04-24T10:34:21.796Z,982.5
2023-04-24T10:36:48.473Z,982.5
2023-04-24T10:39:13.737Z,982.6
2023-04-24T10:41:40.418Z,982.5
2023-04-24T10:44:05.618Z,982.6
2023-04-24T10:46:32.294Z,982.6
2023-04-24T10:48:58.979Z,982.7
2023-04-24T10:51:25.682Z,982.6
2023-04-24T10:53:52.352Z,982.5
2023-04-24T10:56:19.059Z,982.6
2023-04-24T10:58:45.755Z,982.6
2023-04-24T11:01:12.436Z,982.6
2023-04-24T11:03:39.117Z,982.7
2023-04-24T11:08:32.693Z,982.8
2023-04-24T11:10:59.237Z,982.8
2023-04-24T11:13:25.828Z,982.8
2023-04-24T11:15:51.055Z,982.8
2023-04-24T11:18:17.903Z,982.8
2023-04-24T11:20:44.534Z,982.8
2023-04-24T11:23:11.277Z,982.9
2023-04-24T11:25:37.909Z,982.9
2023-04-24T11:28:04.712Z,982.9
2023-04-24T11:30:31.300Z,983
2023-04-24T11:32:57.951Z,983
2023-04-24T11:35:24.695Z,983.1
2023-04-24T11:37:51.394Z,983.1
2023-04-24T11:40:18.026Z,983.1
2023-04-24T11:42:44.606Z,983.1
2023-04-24T11:45:11.284Z,983.2
2023-04-24T11:47:38.029Z,983.2
2023-04-24T11:50:04.804Z,983.2
2023-04-24T11:52:29.871Z,983.2
2023-04-24T11:54:56.546Z,983.3
2023-04-24T11:57:23.228Z,983.2
2023-04-24T11:59:50.060Z,983.2
2023-04-24T12:02:16.608Z,983.2
2023-04-24T12:04:43.283Z,983.3
2023-04-24T12:07:09.974Z,983.1
2023-04-24T12:09:36.658Z,983.2
2023-04-24T12:12:03.340Z,983.2
2023-04-24T12:14:30.024Z,983.3
2023-04-24T12:16:56.697Z,983.3
2023-04-24T12:21:50.074Z,983.3
2023-04-24T12:24:15.292Z,983.4
2023-04-24T12:26:41.983Z,983.5
2023-04-24T12:29:08.658Z,983.5
2023-04-24T12:31:35.361Z,983.5
2023-04-24T12:34:02.034Z,983.5
2023-04-24T12:36:28.719Z,983.4
2023-04-24T12:38:55.398Z,983.4
2023-04-24T12:41:22.089Z,983.3
2023-04-24T12:43:48.781Z,983.3
2023-04-24T12:46:15.456Z,983.3
2023-04-24T12:48:42.150Z,983.3
2023-04-24T12:51:08.828Z,983.3
2023-04-24T12:53:35.515Z,983.2
2023-04-24T12:56:02.191Z,983.3
2023-04-24T12:58:27.429Z,983.3
2023-04-24T13:00:54.104Z,983.3
2023-04-24T13:03:20.838Z,983.3
2023-04-24T13:05:47.477Z,983.3
2023-04-24T13:08:14.161Z,983.3
2023-04-24T13:10:40.852Z,983.4
2023-04-24T13:13:07.527Z,983.4
2023-04-24T13:15:34.221Z,983.3
2023-04-24T13:18:00.898Z,983.4
2023-04-24T13:20:27.594Z,983.4
2023-04-24T13:22:54.280Z,983.4
2023-04-24T13:25:20.976Z,983.4
2023-04-24T13:27:47.638Z,983.4
2023-04-24T13:30:14.318Z,983.4
2023-04-24T13:32:41.018Z,983.5
2023-04-24T13:35:06.230Z,983.6
2023-04-24T13:37:32.914Z,983.6
2023-04-24T13:39:59.620Z,983.6
2023-04-24T13:42:26.286Z,983.6
2023-04-24T13:44:52.977Z,983.5
2023-04-24T13:47:19.660Z,983.5
2023-04-24T13:49:46.343Z,983.5
2023-04-24T13:52:13.017Z,983.5
2023-04-24T13:54:39.703Z,983.5
2023-04-24T13:57:06.447Z,983.5
2023-04-24T13:59:33.073Z,983.4
2023-04-24T14:01:59.757Z,983.5
2023-04-24T14:04:26.448Z,983.5
2023-04-24T14:06:51.665Z,983.4
2023-04-24T14:09:18.355Z,983.4
2023-04-24T14:11:45.029Z,983.4
2023-04-24T14:14:11.714Z,983.4
2023-04-24T14:16:38.407Z,983.4
2023-04-24T14:19:05.099Z,983.5
2023-04-24T14:21:31.776Z,983.6
2023-04-24T14:23:58.458Z,983.9
2023-04-24T14:26:25.139Z,983.8
2023-04-24T14:28:51.836Z,983.8
2023-04-24T14:31:18.520Z,983.8
2023-04-24T14:33:45.197Z,983.7
2023-04-24T14:36:11.888Z,983.7
2023-04-24T14:38:37.106Z,983.8
2023-04-24T14:41:03.778Z,983.7
2023-04-24T14:43:30.454Z,983.7
2023-04-24T14:48:22.384Z,983.7
2023-04-24T14:50:49.070Z,983.7
2023-04-24T14:53:14.303Z,983.7
2023-04-24T14:55:40.990Z,983.7
2023-04-24T14:58:07.735Z,983.6
2023-04-24T15:00:34.382Z,983.7
2023-04-24T15:03:01.058Z,983.8
2023-04-24T15:05:27.752Z,983.7
2023-04-24T15:07:54.418Z,983.6
2023-04-24T15:12:47.788Z,983.7
2023-04-24T15:15:14.477Z,983.6
2023-04-24T15:17:41.156Z,983.7
2023-04-24T15:20:07.843Z,983.6
2023-04-24T15:22:34.522Z,983.6
2023-04-24T15:24:59.740Z,983.5
2023-04-24T15:27:26.427Z,983.6
2023-04-24T15:29:53.108Z,983.6
2023-04-24T15:32:19.791Z,983.6
2023-04-24T15:34:46.457Z,983.6
2023-04-24T15:37:13.148Z,983.7
2023-04-24T15:39:39.837Z,983.6
2023-04-24T15:42:06.522Z,983.7
2023-04-24T15:44:33.206Z,983.6
2023-04-24T15:46:59.902Z,983.6
2023-04-24T15:49:26.561Z,983.6
2023-04-24T15:51:53.261Z,983.5
2023-04-24T15:54:19.934Z,983.6
2023-04-24T15:56:45.175Z,983.6
2023-04-24T15:59:11.863Z,983.6
2023-04-24T16:01:38.523Z,983.6
2023-04-24T16:04:05.230Z,983.8
2023-04-24T16:06:31.908Z,983.9
2023-04-24T16:08:58.585Z,983.8
2023-04-24T16:13:51.957Z,983.7
2023-04-24T16:16:18.643Z,983.6
2023-04-24T16:18:45.347Z,983.7
2023-04-24T16:21:12.022Z,983.6
2023-04-24T16:23:38.703Z,983.6
2023-04-24T16:26:05.396Z,983.6
2023-04-24T16:28:30.606Z,983.5
2023-04-24T16:30:57.281Z,983.5
2023-04-24T16:33:23.972Z,983.5
2023-04-24T16:35:50.656Z,983.5
2023-04-24T16:38:17.342Z,983.6
2023-04-24T16:40:44.035Z,983.6
2023-04-24T16:45:37.395Z,983.5
2023-04-24T16:48:04.082Z,983.5
2023-04-24T16:50:30.767Z,983.6
2023-04-24T16:52:57.450Z,983.5
2023-04-24T16:55:24.146Z,983.6
2023-04-24T16:57:50.829Z,983.7
2023-04-24T17:00:16.052Z,983.6
2023-04-24T17:02:42.724Z,983.6
2023-04-24T17:05:09.405Z,983.6
2023-04-24T17:07:36.083Z,983.6
2023-04-24T17:10:02.772Z,983.6
2023-04-24T17:12:29.466Z,983.6
2023-04-24T17:14:56.133Z,983.5
2023-04-24T17:17:22.821Z,983.5
2023-04-24T17:19:49.511Z,983.6
2023-04-24T17:22:16.199Z,983.5
2023-04-24T17:24:42.885Z,983.6
2023-04-24T17:27:09.566Z,983.6
2023-04-24T17:29:36.264Z,983.6
2023-04-24T17:32:01.473Z,983.6
2023-04-24T17:34:28.153Z,983.7
2023-04-24T17:36:54.839Z,983.7
2023-04-24T17:39:21.520Z,983.6
2023-04-24T17:41:48.213Z,983.6
2023-04-24T17:44:14.886Z,983.6
2023-04-24T17:46:41.579Z,983.6
2023-04-24T17:49:08.267Z,983.6
2023-04-24T17:51:34.950Z,983.6
2023-04-24T17:54:01.634Z,983.5
2023-04-24T17:56:28.325Z,983.6
2023-04-24T17:58:55.015Z,983.6
2023-04-24T18:01:21.691Z,983.6
2023-04-24T18:03:48.397Z,983.6
2023-04-24T18:06:13.597Z,983.6
2023-04-24T18:08:40.308Z,983.6
2023-04-24T18:11:06.960Z,983.7
2023-04-24T18:13:33.654Z,983.6
2023-04-24T18:16:00.338Z,983.7
2023-04-24T18:18:27.006Z,983.7
2023-04-24T18:20:53.708Z,983.7
2023-04-24T18:23:20.387Z,983.7
2023-04-24T18:25:47.082Z,983.8
2023-04-24T18:28:13.763Z,983.8
2023-04-24T18:30:40.439Z,983.8
2023-04-24T18:33:07.132Z,983.8
2023-04-24T18:35:33.813Z,983.8
2023-04-24T18:37:59.034Z,983.8
2023-04-24T18:40:25.718Z,983.8
2023-04-24T18:42:52.401Z,983.9
2023-04-24T18:45:19.099Z,983.9
2023-04-24T18:47:45.782Z,983.9
2023-04-24T18:50:12.457Z,983.9
2023-04-24T18:52:39.140Z,983.9
2023-04-24T18:55:05.830Z,983.9
2023-04-24T18:57:32.506Z,983.9
2023-04-24T18:59:59.202Z,983.9
2023-04-24T19:02:25.869Z,984
2023-04-24T19:04:52.546Z,984
2023-04-24T19:07:19.254Z,984
2023-04-24T19:09:44.477Z,984.1
2023-04-24T19:12:11.166Z,984.1
2023-04-24T19:14:37.838Z,984.1
2023-04-24T19:17:04.525Z,984.2
2023-04-24T19:19:31.201Z,984.2
2023-04-24T19:21:57.890Z,984.2
2023-04-24T19:24:24.583Z,984.2
2023-04-24T19:26:51.255Z,984.2
2023-04-24T19:31:44.614Z,984.2
2023-04-24T19:34:11.314Z,984.2
2023-04-24T19:36:38.003Z,984.2
2023-04-24T19:39:04.682Z,984.1
2023-04-24T19:41:29.902Z,984.2
2023-04-24T19:46:23.264Z,984.2
2023-04-24T19:48:49.975Z,984.1
2023-04-24T19:51:16.653Z,984.2
2023-04-24T19:53:43.340Z,984.2
2023-04-24T19:56:10.023Z,984.2
2023-04-24T19:58:36.720Z,984.2
2023-04-24T20:01:03.395Z,984.2
2023-04-24T20:03:30.083Z,984.3
2023-04-24T20:05:56.742Z,984.3
2023-04-24T20:08:23.427Z,984.3
2023-04-24T20:10:50.119Z,984.3
2023-04-24T20:13:15.335Z,984.2
2023-04-24T20:15:42.020Z,984.3
2023-04-24T20:18:08.715Z,984.3
2023-04-24T20:20:35.387Z,984.3
2023-04-24T20:23:02.082Z,984.3
2023-04-24T20:25:28.740Z,984.3
2023-04-24T20:27:55.457Z,984.3
2023-04-24T20:30:22.120Z,984.3
2023-04-24T20:32:48.824Z,984.3
2023-04-24T20:35:15.488Z,984.3
2023-04-24T20:37:42.191Z,984.3
2023-04-24T20:40:08.863Z,984.2
2023-04-24T20:42:35.564Z,984.3
2023-04-24T20:45:00.786Z,984.1
2023-04-24T20:49:54.143Z,984.2
2023-04-24T20:52:20.820Z,984.2
2023-04-24T20:54:47.517Z,984.2
2023-04-24T20:57:14.194Z,984.2
2023-04-24T20:59:40.877Z,984.2
2023-04-24T21:02:07.567Z,984.2
2023-04-24T21:04:34.247Z,984.2
2023-04-24T21:07:00.949Z,984.2
2023-04-24T21:09:27.618Z,984.2
2023-04-24T21:11:54.300Z,984.2
2023-04-24T21:14:20.995Z,984.1
2023-04-24T21:16:46.205Z,984.1
2023-04-24T21:19:12.893Z,984
2023-04-24T21:21:39.580Z,984
2023-04-24T21:24:06.266Z,984.1
2023-04-24T21:26:32.958Z,984.1
2023-04-24T21:28:59.631Z,984.1
2023-04-24T21:31:26.321Z,984
2023-04-24T21:33:53.006Z,984.1
2023-04-24T21:36:19.690Z,984
2023-04-24T21:38:46.382Z,984
2023-04-24T21:41:13.045Z,983.9
2023-04-24T21:43:39.736Z,983.9
2023-04-24T21:46:06.433Z,983.9
2023-04-24T21:48:31.647Z,983.9
2023-04-24T21:50:58.324Z,983.9
2023-04-24T21:53:25.005Z,983.8
2023-04-24T21:55:51.710Z,983.8
2023-04-24T21:58:18.389Z,983.8
2023-04-24T22:00:45.081Z,983.8
2023-04-24T22:03:11.766Z,983.8
2023-04-24T22:05:38.448Z,983.8
2023-04-24T22:08:05.123Z,983.8
2023-04-24T22:10:31.823Z,983.7
2023-04-24T22:12:58.499Z,983.7
2023-04-24T22:15:25.189Z,983.7
2023-04-24T22:17:51.870Z,983.7
2023-04-24T22:20:18.564Z,983.6
2023-04-24T22:22:43.818Z,983.6
2023-04-24T22:25:10.474Z,983.6
2023-04-24T22:27:37.191Z,983.6
2023-04-24T22:30:03.858Z,983.6
2023-04-24T22:32:30.508Z,983.5
2023-04-24T22:37:23.876Z,983.5
2023-04-24T22:39:50.570Z,983.5
2023-04-24T22:42:17.246Z,983.5
2023-04-24T22:44:43.933Z,983.4
2023-04-24T22:47:10.627Z,983.4
2023-04-24T22:49:37.310Z,983.4
2023-04-24T22:52:04.005Z,983.4
2023-04-24T22:54:29.201Z,983.4
2023-04-24T22:56:55.902Z,983.4
2023-04-24T22:59:22.576Z,983.3
2023-04-24T23:01:49.256Z,983.3
2023-04-24T23:04:14.555Z,983.3
2023-04-24T23:06:41.191Z,983.2
2023-04-24T23:09:07.884Z,983.2
2023-04-24T23:11:34.557Z,983.2
2023-04-24T23:14:01.282Z,983.2
2023-04-24T23:16:28.000Z,983.2
2023-04-24T23:18:54.625Z,983.2
2023-04-24T23:21:21.317Z,983.1
2023-04-24T23:23:47.991Z,983.2
2023-04-24T23:26:14.672Z,983.2
2023-04-24T23:28:41.345Z,983.2
2023-04-24T23:31:08.029Z,983.2
2023-04-24T23:33:34.746Z,983.2
2023-04-24T23:35:59.948Z,983.2
2023-04-24T23:38:26.624Z,983.2
2023-04-24T23:40:53.317Z,983.1
2023-04-24T23:43:19.998Z,983.2
2023-04-24T23:45:46.681Z,983.1
2023-04-24T23:48:13.368Z,983.1
2023-04-24T23:50:40.053Z,983.2
2023-04-24T23:53:06.745Z,983.2
2023-04-24T23:55:33.425Z,983.3
2023-04-24T23:58:00.113Z,983.3
